Список аэропортов
Фактическая погода:

21 августа, 06:50
Температура: +20°C (+20.0*)
Ветер: сев.-западный 1 м/с
Давление: *757 мм
Без существ. явл.
Время (МСК)Темп. СВетерВлажностьДавлениеОблачностьОсадки
03:00+22З, 2 м/с56%1009 гПаясно
04:00+20СЗ, 1 м/с65%1009 гПаясно
05:00+20СЗ, 2 м/с62%1009 гПаясно
06:00+20СЗ, 2 м/с60%1009 гПаясно
07:00+20СЗ, 2 м/с61%1009 гПаясно
08:00+22СЗ, 1 м/с54%1009 гПаясно
09:00+27С, 2 м/с42%1009 гПаясно
10:00+29СВ, 2 м/с37%1009 гПас прояснениями
11:00+30В, 2 м/с34%1009 гПаоблачно
12:00+32В, 2 м/с32%1010 гПаоблачно
13:00+33В, 2 м/с31%1010 гПаоблачно
14:00+32Ю, 1 м/с30%1009 гПаоблачно
15:00+32ЮЗ, 2 м/с30%1009 гПаоблачно
16:00+32ЮЗ, 3 м/с31%1008 гПаоблачно
17:00+32Ю, 3 м/с28%1008 гПаоблачно
18:00+32Ю, 3 м/с29%1008 гПамалооблачно
19:00+30Ю, 4 м/с37%1008 гПамалооблачно
20:00+27Ю, 3 м/с49%1009 гПаясно
21:00+26ЮЗ, 2 м/с54%1009 гПаясно
22:00+25ЮЗ, 2 м/с60%1009 гПамалооблачно
23:00+24ЮЗ, 2 м/с67%1009 гПаясно
22 августа
00:00+24З, 2 м/с67%1009 гПаясно
01:00+23З, 2 м/с70%1009 гПаясно
02:00+23З, 2 м/с76%1008 гПаясно
03:00+22З, 2 м/с80%1008 гПаясно
04:00+22З, 2 м/с82%1008 гПаясно
05:00+22СЗ, 2 м/с82%1008 гПаясно
06:00+21СЗ, 1 м/с85%1008 гПаясно
07:00+20СЗ, 1 м/с90%1009 гПаясно
08:00+22С, 1 м/с82%1009 гПаясно
09:00+25СВ, 2 м/с70%1010 гПаясно
10:00+28СВ, 3 м/с60%1010 гПаясно
11:00+29СВ, 3 м/с52%1010 гПамалооблачно
12:00+29В, 2 м/с56%1010 гПамалооблачнодождь
13:00+30В, 2 м/с53%1009 гПамалооблачносл. дождь
14:00+30СВ, 3 м/с52%1009 гПас прояснениямидождь
15:00+29СВ, 2 м/с53%1009 гПас прояснениямидождь
16:00+29В, 3 м/с58%1009 гПаоблачнодождь
17:00+27В, 3 м/с66%1009 гПамалооблачнодождь
18:00+27В, 4 м/с56%1009 гПамалооблачносл. дождь
19:00+26В, 4 м/с52%1009 гПас прояснениями
20:00+25СВ, 4 м/с58%1009 гПамалооблачно
21:00+24СВ, 3 м/с65%1010 гПамалооблачно
22:00+23СВ, 3 м/с71%1010 гПамалооблачно
23:00+23СВ, 2 м/с74%1010 гПас прояснениями
23 августа
00:00+23СВ, 2 м/с76%1010 гПаоблачно
01:00+23С, 3 м/с77%1010 гПаоблачно
02:00+23С, 3 м/с79%1010 гПаоблачно
03:00+23С, 2 м/с80%1010 гПаоблачно